Time;durP1;ratioP1;P1;durP2;ratioP2;P2;SDS_P1;SDS_P2;PMS_P1;PMS_P2;Temp;Humidity;BMP_temperature;BMP_pressure;BME280_temperature;BME280_humidity;BME280_pressure;Samples;Min_cycle;Max_cycle;Signal;HPM_P1;HPM_P2
2024/01/28 00:05:17;;;;;;;19.38;9.07;;;;;;;12.02;100.00;101818.56;10575231;28;20054;-77
2024/01/28 00:10:41;;;;;;;23.42;11.43;;;;;;;12.20;100.00;101827.91;10553867;28;20081;-78
2024/01/28 00:16:05;;;;;;;15.07;6.03;;;;;;;12.43;100.00;101814.34;10564879;28;20044;-77
2024/01/28 00:21:28;;;;;;;11.75;6.82;;;;;;;12.70;100.00;101812.34;10552394;28;20528;-78
2024/01/28 00:26:51;;;;;;;15.90;9.23;;;;;;;12.82;100.00;101817.03;10559249;28;20051;-77
2024/01/28 00:32:16;;;;;;;9.77;5.40;;;;;;;12.81;100.00;101818.78;10560234;28;20048;-78
2024/01/28 00:37:38;;;;;;;9.77;4.85;;;;;;;12.64;100.00;101807.81;10570998;28;20051;-77
2024/01/28 00:43:00;;;;;;;6.35;2.83;;;;;;;12.58;100.00;101818.28;10547927;28;20044;-77
2024/01/28 00:48:24;;;;;;;4.55;2.90;;;;;;;12.68;100.00;101804.38;10551208;28;20056;-77
2024/01/28 00:53:47;;;;;;;5.28;2.50;;;;;;;12.37;100.00;101802.75;10521900;28;20054;-78
2024/01/28 00:59:09;;;;;;;3.95;2.97;;;;;;;12.21;100.00;101810.25;10553899;28;20109;-77
2024/01/28 01:04:33;;;;;;;5.97;2.55;;;;;;;12.29;100.00;101811.34;10559434;28;20056;-77
2024/01/28 01:09:56;;;;;;;8.55;3.88;;;;;;;12.26;100.00;101806.88;10571777;28;20163;-77
2024/01/28 01:15:18;;;;;;;4.40;2.10;;;;;;;12.24;100.00;101798.00;10561247;28;20552;-77
2024/01/28 01:20:42;;;;;;;4.35;2.22;;;;;;;12.28;100.00;101793.66;10562834;28;20510;-77
2024/01/28 01:26:05;;;;;;;3.85;1.77;;;;;;;12.37;100.00;101786.84;10556792;28;20048;-77
2024/01/28 01:31:27;;;;;;;3.28;2.03;;;;;;;12.28;100.00;101780.41;10535107;28;20136;-78
2024/01/28 01:36:51;;;;;;;4.65;1.90;;;;;;;12.22;100.00;101780.25;10562411;28;20035;-78
2024/01/28 01:42:14;;;;;;;7.82;3.53;;;;;;;12.28;100.00;101781.31;10566515;28;20048;-77
2024/01/28 01:47:37;;;;;;;6.25;3.42;;;;;;;12.18;100.00;101765.19;10567712;28;20055;-77
2024/01/28 01:53:02;;;;;;;6.53;3.83;;;;;;;12.18;100.00;101765.19;10553208;28;20127;-78
2024/01/28 01:58:24;;;;;;;3.92;2.47;;;;;;;12.21;100.00;101757.28;10547128;28;20137;-78
2024/01/28 02:03:47;;;;;;;5.32;3.10;;;;;;;12.21;100.00;101754.66;10571557;28;20446;-77
2024/01/28 02:09:11;;;;;;;5.25;2.97;;;;;;;12.12;100.00;101751.78;10572067;28;20047;-78
2024/01/28 02:14:33;;;;;;;4.22;2.25;;;;;;;12.11;100.00;101752.63;10560584;28;20548;-78
2024/01/28 02:19:56;;;;;;;4.63;2.40;;;;;;;12.01;100.00;101750.63;10561207;28;20059;-78
2024/01/28 02:25:20;;;;;;;8.32;2.40;;;;;;;12.10;100.00;101738.50;10565268;28;20101;-77
2024/01/28 02:30:42;;;;;;;4.70;2.22;;;;;;;12.19;100.00;101743.16;10553190;28;20047;-77
2024/01/28 02:36:06;;;;;;;5.70;2.45;;;;;;;12.28;100.00;101738.94;10579361;28;20055;-78
2024/01/28 02:41:30;;;;;;;4.70;2.20;;;;;;;12.26;100.00;101734.50;10571382;28;20046;-78
2024/01/28 02:46:53;;;;;;;2.67;2.20;;;;;;;12.38;100.00;101724.19;10612651;27;20062;-77
2024/01/28 02:52:16;;;;;;;6.40;2.28;;;;;;;12.41;100.00;101728.66;10614750;27;20111;-77
2024/01/28 02:57:40;;;;;;;4.35;2.42;;;;;;;12.37;100.00;101733.00;10614453;27;20041;-77
2024/01/28 03:03:03;;;;;;;4.20;2.38;;;;;;;12.32;100.00;101735.53;10628221;27;20058;-77
2024/01/28 03:08:25;;;;;;;4.28;2.10;;;;;;;12.39;100.00;101736.59;10642099;27;20503;-77
2024/01/28 03:13:49;;;;;;;3.75;1.80;;;;;;;12.48;100.00;101739.44;10606491;27;20047;-76
2024/01/28 03:19:12;;;;;;;3.97;1.60;;;;;;;12.55;100.00;101730.75;10628061;27;20364;-77
2024/01/28 03:24:34;;;;;;;3.85;1.80;;;;;;;12.75;100.00;101721.53;10613459;27;20449;-77
2024/01/28 03:29:58;;;;;;;4.97;2.10;;;;;;;12.68;100.00;101724.00;10627186;27;20502;-77
2024/01/28 03:35:20;;;;;;;4.15;1.75;;;;;;;12.50;100.00;101724.47;10592143;27;20043;-77
2024/01/28 03:40:43;;;;;;;3.92;1.90;;;;;;;12.35;100.00;101727.66;10593154;27;20047;-77
2024/01/28 03:46:10;;;;;;;5.68;2.20;;;;;;;12.44;100.00;101734.94;10587423;27;20062;-77
2024/01/28 03:51:32;;;;;;;4.57;2.00;;;;;;;12.73;100.00;101731.19;10565623;27;20051;-77
2024/01/28 03:56:55;;;;;;;4.93;2.20;;;;;;;13.28;100.00;101734.16;10569322;27;20039;-77
2024/01/28 04:02:19;;;;;;;4.70;2.38;;;;;;;13.70;100.00;101747.34;10601635;27;20087;-77
2024/01/28 04:07:41;;;;;;;7.80;3.28;;;;;;;14.19;100.00;101733.16;10587121;27;20039;-77
2024/01/28 04:13:04;;;;;;;6.72;2.60;;;;;;;14.23;100.00;101735.91;10553695;27;20044;-77
2024/01/28 04:18:28;;;;;;;4.30;2.17;;;;;;;14.25;100.00;101749.19;10568837;27;20153;-77
2024/01/28 04:23:51;;;;;;;7.88;2.30;;;;;;;14.24;100.00;101750.97;10579908;27;20587;-77
2024/01/28 04:29:14;;;;;;;2.35;2.10;;;;;;;13.82;100.00;101759.09;10601584;27;20054;-77
2024/01/28 04:34:38;;;;;;;8.55;2.35;;;;;;;13.50;100.00;101753.19;10574737;27;20043;-77
2024/01/28 04:40:01;;;;;;;4.38;2.20;;;;;;;13.29;100.00;101758.06;10567482;27;20138;-77
2024/01/28 04:45:23;;;;;;;9.10;2.00;;;;;;;13.04;100.00;101755.72;10584270;27;20048;-77
2024/01/28 04:50:47;;;;;;;11.93;2.60;;;;;;;12.79;100.00;101770.19;10567251;27;20065;-76
2024/01/28 04:56:11;;;;;;;7.97;2.30;;;;;;;12.70;100.00;101776.16;10545569;27;20075;-77
2024/01/28 05:01:34;;;;;;;6.45;2.20;;;;;;;12.57;100.00;101783.78;10537100;27;20504;-77
2024/01/28 05:06:59;;;;;;;5.95;2.38;;;;;;;12.42;100.00;101781.66;10572244;27;20047;-78
2024/01/28 05:12:21;;;;;;;9.35;1.90;;;;;;;12.27;100.00;101781.31;10572805;27;20092;-78
2024/01/28 05:17:44;;;;;;;6.78;1.98;;;;;;;12.24;100.00;101784.75;10580159;27;20047;-77
2024/01/28 05:23:09;;;;;;;7.03;1.95;;;;;;;12.33;100.00;101790.28;10564865;28;20063;-77
2024/01/28 05:28:31;;;;;;;3.17;1.65;;;;;;;12.54;100.00;101795.19;10564341;28;20055;-78
2024/01/28 05:33:54;;;;;;;6.93;2.30;;;;;;;12.87;100.00;101803.03;10573458;28;20491;-78
2024/01/28 05:39:18;;;;;;;7.05;1.77;;;;;;;13.23;100.00;101796.81;10580223;28;20141;-77
2024/01/28 05:44:40;;;;;;;8.35;2.13;;;;;;;13.67;100.00;101821.59;10585548;27;20043;-77
2024/01/28 05:50:03;;;;;;;7.57;1.90;;;;;;;13.99;100.00;101812.47;10601610;27;20431;-78
2024/01/28 05:55:27;;;;;;;6.50;3.13;;;;;;;14.15;100.00;101822.53;10595110;27;20046;-78
2024/01/28 06:00:49;;;;;;;6.95;3.30;;;;;;;14.25;100.00;101827.13;10578371;27;20586;-78
2024/01/28 06:06:12;;;;;;;7.13;3.00;;;;;;;14.40;100.00;101836.28;10597219;27;20042;-78
2024/01/28 06:11:37;;;;;;;4.50;2.85;;;;;;;15.67;92.26;101840.84;10639828;27;20115;-77
2024/01/28 06:16:59;;;;;;;8.18;5.13;;;;;;;18.29;66.61;101832.88;10623651;27;20560;-78
2024/01/28 06:22:21;;;;;;;7.07;5.13;;;;;;;19.83;54.91;101829.03;10608637;27;20051;-78
2024/01/28 06:27:45;;;;;;;4.88;3.22;;;;;;;20.02;52.90;101828.97;10603385;27;20490;-78
2024/01/28 06:33:08;;;;;;;8.43;4.90;;;;;;;18.81;56.17;101830.25;10608817;27;20100;-78
2024/01/28 06:38:31;;;;;;;10.52;5.28;;;;;;;17.00;70.55;101838.56;10601356;27;20133;-77
2024/01/28 06:43:55;;;;;;;5.55;3.00;;;;;;;17.34;70.92;101845.00;10622385;27;20130;-78
2024/01/28 06:49:17;;;;;;;3.63;2.80;;;;;;;19.80;53.65;101845.16;10548160;28;20192;-77
2024/01/28 06:54:41;;;;;;;8.90;4.22;;;;;;;18.00;56.95;101848.84;10551285;27;20451;-78
2024/01/28 07:00:09;;;;;;;4.53;3.03;;;;;;;16.85;63.96;101864.25;10554839;27;20104;-78
2024/01/28 07:05:32;;;;;;;6.95;5.03;;;;;;;16.51;66.05;101861.28;10552131;27;20075;-77
2024/01/28 07:10:56;;;;;;;5.00;4.05;;;;;;;16.07;70.94;101855.53;10533109;28;20124;-77
2024/01/28 07:16:21;;;;;;;6.90;6.13;;;;;;;15.93;73.80;101865.13;10550046;28;20035;-76
2024/01/28 07:21:44;;;;;;;12.63;7.03;;;;;;;16.49;72.28;101863.03;10554434;28;20059;-77
2024/01/28 07:27:06;;;;;;;7.03;5.72;;;;;;;16.91;67.65;101859.88;10559439;28;21031;-77
2024/01/28 07:32:30;;;;;;;6.53;5.93;;;;;;;17.30;66.60;101877.00;10555326;28;20395;-77
2024/01/28 07:37:53;;;;;;;6.03;4.90;;;;;;;17.46;66.74;101868.19;10562152;28;20040;-78
2024/01/28 07:43:15;;;;;;;7.55;5.07;;;;;;;18.52;59.73;101873.00;10562369;28;20150;-78
2024/01/28 07:48:40;;;;;;;9.55;6.15;;;;;;;17.96;64.26;101873.78;10531060;28;20060;-78
2024/01/28 07:54:02;;;;;;;10.40;8.30;;;;;;;17.78;67.26;101876.41;10557290;28;20051;-79
2024/01/28 07:59:24;;;;;;;10.35;4.20;;;;;;;18.03;68.64;101891.63;10553219;27;20163;-79
2024/01/28 08:04:49;;;;;;;6.13;3.20;;;;;;;18.45;70.57;101895.28;10572452;28;20046;-79
2024/01/28 08:10:11;;;;;;;3.22;2.72;;;;;;;18.41;68.66;101906.88;10568893;28;20139;-82
2024/01/28 08:15:34;;;;;;;2.85;1.73;;;;;;;19.31;59.74;101907.78;10558773;28;20071;-80
2024/01/28 08:20:58;;;;;;;9.68;4.68;;;;;;;18.59;66.07;101918.50;10559112;28;20043;-79
2024/01/28 08:26:20;;;;;;;4.85;2.80;;;;;;;21.40;53.20;101920.00;10535479;28;20311;-82
2024/01/28 08:31:43;;;;;;;8.30;4.57;;;;;;;21.27;52.13;101923.69;10551100;28;20058;-78
2024/01/28 08:37:07;;;;;;;9.88;2.15;;;;;;;23.98;45.58;101936.66;10569055;28;20504;-78
2024/01/28 08:42:29;;;;;;;3.40;1.42;;;;;;;25.23;38.98;101929.22;10574152;28;20104;-78
2024/01/28 08:47:52;;;;;;;5.20;3.72;;;;;;;21.77;44.96;101928.56;10612878;27;20130;-77
2024/01/28 08:53:16;;;;;;;6.72;5.18;;;;;;;19.25;51.40;101926.53;10578715;27;20052;-78
2024/01/28 08:58:38;;;;;;;4.68;2.40;;;;;;;18.46;58.07;101914.00;10602533;27;20128;-78
2024/01/28 09:04:01;;;;;;;2.85;1.50;;;;;;;20.28;49.78;101899.41;10588361;27;20046;-78
2024/01/28 09:09:26;;;;;;;10.60;7.50;;;;;;;23.75;41.99;101899.38;10591672;27;20426;-78
2024/01/28 09:14:48;;;;;;;23.42;12.88;;;;;;;21.37;43.96;101900.34;10600138;27;20046;-78
2024/01/28 09:20:11;;;;;;;6.22;5.53;;;;;;;21.42;44.68;101896.69;10599892;27;20394;-77
2024/01/28 09:25:35;;;;;;;4.50;4.10;;;;;;;20.03;45.99;101900.41;10599580;27;20634;-78
2024/01/28 09:30:58;;;;;;;9.32;4.88;;;;;;;19.72;48.10;101899.66;10580768;27;20062;-78
2024/01/28 09:36:20;;;;;;;4.50;2.50;;;;;;;19.55;48.34;101896.16;10598238;27;20050;-78
2024/01/28 09:41:55;;;;;;;5.30;2.35;;;;;;;19.43;49.03;101894.34;10642778;27;20047;-78
2024/01/28 09:47:19;;;;;;;1.40;1.30;;;;;;;19.07;50.25;101893.56;10607842;27;20487;-78
2024/01/28 09:52:42;;;;;;;5.72;3.65;;;;;;;18.50;52.39;101898.88;10597569;28;20031;-78
2024/01/28 09:58:06;;;;;;;3.75;2.50;;;;;;;18.78;52.60;101887.31;10599250;27;20550;-80
2024/01/28 10:03:29;;;;;;;3.63;3.22;;;;;;;18.60;53.83;101881.97;10618505;27;20100;-77
2024/01/28 10:08:51;;;;;;;5.32;2.83;;;;;;;19.16;52.74;101879.28;10587391;27;20051;-78
2024/01/28 10:14:16;;;;;;;7.68;4.82;;;;;;;19.38;51.62;101877.41;10602553;27;20066;-81
2024/01/28 10:19:41;;;;;;;8.27;5.93;;;;;;;18.52;53.92;101887.25;10592187;27;20573;-80
2024/01/28 10:25:04;;;;;;;6.65;4.85;;;;;;;17.76;55.22;101880.84;10600859;27;20833;-78
2024/01/28 10:30:28;;;;;;;7.95;4.95;;;;;;;17.43;58.19;101874.44;10595032;27;20051;-76
2024/01/28 10:35:51;;;;;;;30.13;15.65;;;;;;;17.73;55.86;101870.13;10602455;27;20483;-77
2024/01/28 10:41:17;;;;;;;22.45;11.95;;;;;;;17.93;55.17;101871.09;10597711;27;20051;-78
2024/01/28 10:46:44;;;;;;;4.30;4.00;;;;;;;18.38;52.99;101862.28;10606154;27;20049;-77
2024/01/28 10:52:08;;;;;;;5.30;2.85;;;;;;;18.78;50.69;101847.16;10600429;27;20043;-78
2024/01/28 10:57:32;;;;;;;7.10;4.60;;;;;;;18.66;51.46;101853.44;10591008;27;20050;-77
2024/01/28 11:02:58;;;;;;;7.63;6.82;;;;;;;18.75;51.45;101841.84;10600348;27;20058;-78
2024/01/28 11:08:21;;;;;;;4.07;2.80;;;;;;;18.74;51.35;101834.69;10588931;27;20361;-76
2024/01/28 11:13:46;;;;;;;6.13;3.58;;;;;;;18.58;50.03;101824.88;10602140;27;20138;-78
2024/01/28 11:19:15;;;;;;;2.83;2.13;;;;;;;18.77;49.03;101834.72;10596333;27;20047;-79
2024/01/28 11:24:48;;;;;;;5.47;3.15;;;;;;;19.07;49.01;101823.94;10596175;27;20043;-81
2024/01/28 11:30:12;;;;;;;6.93;5.05;;;;;;;18.83;50.23;101826.69;10571963;27;20043;-76
2024/01/28 11:35:36;;;;;;;8.48;5.57;;;;;;;18.25;51.23;101815.94;10588146;27;20051;-76
2024/01/28 11:41:02;;;;;;;6.80;5.85;;;;;;;18.17;51.02;101822.19;10589957;27;20081;-76
2024/01/28 11:46:28;;;;;;;6.05;5.53;;;;;;;18.21;50.06;101811.47;10586295;27;20427;-76
2024/01/28 11:51:51;;;;;;;6.47;5.78;;;;;;;18.54;49.72;101799.00;10611751;27;20467;-76
2024/01/28 11:57:14;;;;;;;8.13;6.50;;;;;;;18.30;50.63;101800.81;10600610;27;20031;-76
2024/01/28 12:02:37;;;;;;;13.05;9.20;;;;;;;18.11;51.71;101796.34;10574382;27;20546;-77
2024/01/28 12:08:01;;;;;;;9.80;8.70;;;;;;;17.95;51.45;101790.94;10604419;27;20047;-76
2024/01/28 12:13:23;;;;;;;9.75;6.35;;;;;;;17.90;51.64;101785.59;10602795;27;20051;-76
2024/01/28 12:18:46;;;;;;;6.80;3.17;;;;;;;17.08;63.19;101774.59;10575966;27;20088;-76
2024/01/28 12:24:11;;;;;;;10.95;7.05;;;;;;;15.25;100.00;101768.44;10600671;27;20062;-75
2024/01/28 12:29:33;;;;;;;16.17;14.50;;;;;;;13.63;100.00;101819.75;10600431;27;20522;-77
2024/01/28 12:34:57;;;;;;;11.18;9.43;;;;;;;12.92;100.00;101837.63;10582032;27;20043;-76
2024/01/28 12:40:21;;;;;;;12.43;7.93;;;;;;;13.03;100.00;101844.06;10577747;27;20044;-76
2024/01/28 12:45:43;;;;;;;13.40;12.00;;;;;;;13.23;100.00;101842.78;10575713;27;20051;-81
2024/01/28 12:51:07;;;;;;;16.88;10.73;;;;;;;13.43;100.00;101853.81;10604639;27;20046;-80
2024/01/28 12:56:31;;;;;;;22.02;19.65;;;;;;;13.56;100.00;101837.31;10585654;27;20104;-81
2024/01/28 13:01:54;;;;;;;23.92;17.10;;;;;;;13.69;100.00;101827.84;10585561;27;20165;-80
2024/01/28 13:07:17;;;;;;;12.02;8.65;;;;;;;13.86;100.00;101835.25;10586490;27;20054;-78
2024/01/28 13:12:43;;;;;;;18.77;14.52;;;;;;;14.08;100.00;101839.22;10585647;27;20046;-78
2024/01/28 13:18:05;;;;;;;17.90;16.17;;;;;;;14.10;100.00;101842.81;10599299;27;20047;-77
2024/01/28 13:23:28;;;;;;;14.48;12.48;;;;;;;14.07;100.00;101852.44;10593830;27;20075;-79
2024/01/28 13:28:52;;;;;;;27.15;17.42;;;;;;;14.22;100.00;101844.78;10594616;28;20548;-80
2024/01/28 13:34:14;;;;;;;23.77;18.75;;;;;;;14.25;100.00;101831.53;10597340;27;20043;-78
2024/01/28 13:39:37;;;;;;;21.17;13.70;;;;;;;14.34;100.00;101851.19;10572406;27;20051;-78
2024/01/28 13:45:01;;;;;;;20.63;15.23;;;;;;;14.35;100.00;101845.03;10601059;27;20043;-78
2024/01/28 13:50:24;;;;;;;8.93;6.72;;;;;;;14.57;100.00;101848.09;10528186;27;20047;-78
2024/01/28 13:55:47;;;;;;;15.82;12.77;;;;;;;14.62;100.00;101833.13;10531994;27;20156;-79
2024/01/28 14:01:11;;;;;;;2.83;2.30;;;;;;;14.63;100.00;101842.88;10514941;28;20059;-79
2024/01/28 14:06:33;;;;;;;17.83;13.25;;;;;;;14.68;100.00;101847.41;10520975;28;20039;-81
2024/01/28 14:11:56;;;;;;;17.83;13.32;;;;;;;14.67;100.00;101836.72;10542578;28;20039;-79
2024/01/28 14:17:20;;;;;;;12.85;8.18;;;;;;;14.50;100.00;101822.28;10545408;28;20062;-79
2024/01/28 14:22:43;;;;;;;7.97;4.00;;;;;;;14.46;100.00;101818.66;10548079;28;20051;-80
2024/01/28 14:28:06;;;;;;;20.48;11.18;;;;;;;14.32;100.00;101834.34;10542528;28;20055;-83
2024/01/28 14:33:30;;;;;;;16.33;10.55;;;;;;;14.06;100.00;101840.94;10578022;28;20063;-78
2024/01/28 14:38:52;;;;;;;9.43;7.15;;;;;;;13.89;100.00;101848.59;10511132;27;20048;-78
2024/01/28 14:44:15;;;;;;;11.85;8.80;;;;;;;13.49;100.00;101851.31;10561473;27;20415;-78
2024/01/28 14:49:39;;;;;;;7.72;6.55;;;;;;;13.07;100.00;101872.41;10547814;27;20039;-76
2024/01/28 14:55:01;;;;;;;8.85;4.30;;;;;;;12.92;100.00;101878.28;10549152;27;20051;-77
2024/01/28 15:00:23;;;;;;;9.07;5.50;;;;;;;12.89;100.00;101880.84;10555956;27;20089;-79
2024/01/28 15:05:48;;;;;;;9.23;7.30;;;;;;;12.88;100.00;101887.00;10566425;27;20050;-82
2024/01/28 15:11:10;;;;;;;9.00;7.43;;;;;;;12.87;100.00;101889.59;10596761;27;20047;-81
2024/01/28 15:16:33;;;;;;;15.07;13.50;;;;;;;12.86;100.00;101887.81;10573034;27;20039;-81
2024/01/28 15:21:57;;;;;;;13.43;8.88;;;;;;;12.77;100.00;101884.09;10573030;27;20047;-78
2024/01/28 15:27:19;;;;;;;7.78;6.00;;;;;;;12.61;100.00;101892.50;10530948;27;20097;-82
2024/01/28 15:32:42;;;;;;;10.73;9.27;;;;;;;12.69;100.00;101890.94;10530391;28;20052;-79
2024/01/28 15:38:07;;;;;;;17.90;11.73;;;;;;;12.82;100.00;101881.53;10580117;27;20035;-78
2024/01/28 15:43:29;;;;;;;12.25;9.43;;;;;;;12.95;100.00;101883.63;10571869;27;20044;-81
2024/01/28 15:48:52;;;;;;;9.65;8.20;;;;;;;13.01;100.00;101885.53;10550719;28;20514;-78
2024/01/28 15:54:16;;;;;;;12.45;8.20;;;;;;;13.13;100.00;101880.53;10547020;28;20404;-80
2024/01/28 15:59:44;;;;;;;18.08;13.10;;;;;;;13.36;100.00;101875.78;10543536;27;20049;-80
2024/01/28 16:05:07;;;;;;;34.88;25.60;;;;;;;13.34;100.00;101877.47;10541842;27;20051;-78
2024/01/28 16:10:32;;;;;;;17.80;9.95;;;;;;;13.44;100.00;101900.72;10528227;27;20097;-80
2024/01/28 16:15:55;;;;;;;6.80;5.45;;;;;;;13.45;100.00;101882.19;10551388;27;20054;-80
2024/01/28 16:21:17;;;;;;;20.90;11.40;;;;;;;13.47;98.17;101906.06;10556619;27;20060;-82
2024/01/28 16:26:41;;;;;;;15.80;8.95;;;;;;;13.60;96.08;101905.47;10547623;28;20044;-77
2024/01/28 16:32:04;;;;;;;8.93;6.85;;;;;;;13.63;100.00;101907.31;10558829;27;20059;-78
2024/01/28 16:37:27;;;;;;;4.78;3.03;;;;;;;13.68;100.00;101926.88;10526105;27;20184;-79
2024/01/28 16:42:51;;;;;;;9.75;5.95;;;;;;;13.70;100.00;101918.09;10548306;27;20052;-78
2024/01/28 16:48:14;;;;;;;8.75;6.68;;;;;;;13.77;97.62;101927.09;10541300;28;20135;-81
2024/01/28 16:53:37;;;;;;;13.57;9.88;;;;;;;13.70;97.71;101941.09;10541202;28;20138;-79
2024/01/28 16:59:02;;;;;;;7.35;4.97;;;;;;;13.66;97.55;101931.25;10548665;27;20116;-79
2024/01/28 17:04:24;;;;;;;3.55;2.55;;;;;;;13.47;98.72;101951.16;10552660;28;20043;-77
2024/01/28 17:09:47;;;;;;;5.50;3.38;;;;;;;13.50;99.16;101940.63;10541125;27;20395;-76
2024/01/28 17:15:11;;;;;;;6.80;2.95;;;;;;;13.64;84.56;101940.94;10556615;28;20112;-78
2024/01/28 17:20:33;;;;;;;10.88;5.88;;;;;;;13.39;82.18;101942.16;10534611;28;20108;-77
2024/01/28 17:25:56;;;;;;;8.02;4.05;;;;;;;13.38;79.42;101951.88;10536407;28;20093;-77
2024/01/28 17:31:20;;;;;;;7.13;2.63;;;;;;;13.60;67.70;101949.69;10555267;28;20047;-79
2024/01/28 17:36:42;;;;;;;10.90;6.00;;;;;;;13.43;66.40;101963.47;10533719;28;20406;-76
2024/01/28 17:42:11;;;;;;;10.93;7.88;;;;;;;13.29;70.17;101975.50;10547899;28;20380;-77
2024/01/28 17:47:36;;;;;;;12.45;6.10;;;;;;;12.98;71.58;101973.84;10521185;28;20052;-77
2024/01/28 17:53:00;;;;;;;14.48;5.53;;;;;;;13.09;69.94;101984.69;10555918;28;20040;-77
2024/01/28 17:58:22;;;;;;;12.63;6.82;;;;;;;13.21;71.29;101990.34;10544721;28;20052;-77
2024/01/28 18:03:46;;;;;;;8.55;7.70;;;;;;;13.14;73.44;101969.81;10564287;28;20769;-79
2024/01/28 18:09:09;;;;;;;9.52;6.55;;;;;;;12.91;72.31;101984.25;10551067;28;20048;-77
2024/01/28 18:14:31;;;;;;;6.78;5.47;;;;;;;12.91;62.17;101978.94;10535746;28;20079;-78
2024/01/28 18:19:55;;;;;;;15.60;6.45;;;;;;;12.82;63.76;101984.91;10557069;27;20043;-77
2024/01/28 18:25:18;;;;;;;11.10;6.15;;;;;;;12.78;70.36;101978.63;10577654;27;20137;-78
2024/01/28 18:30:40;;;;;;;7.35;6.10;;;;;;;12.89;69.96;101978.00;10599242;27;20055;-76
2024/01/28 18:36:05;;;;;;;9.20;4.85;;;;;;;12.96;69.74;101987.91;10607512;27;20043;-78
2024/01/28 18:41:28;;;;;;;10.85;4.68;;;;;;;12.83;70.90;101976.09;10551398;27;20151;-76
2024/01/28 18:46:51;;;;;;;7.90;5.30;;;;;;;12.92;74.69;101996.66;10576975;27;20078;-78
2024/01/28 18:52:15;;;;;;;10.82;2.70;;;;;;;12.72;68.50;101986.41;10565739;27;20075;-78
2024/01/28 18:57:38;;;;;;;4.35;3.88;;;;;;;12.97;63.65;101997.66;10600123;27;20047;-80
2024/01/28 19:03:01;;;;;;;8.73;5.13;;;;;;;12.70;65.41;101990.78;10576913;27;20044;-75
2024/01/28 19:08:25;;;;;;;9.98;4.45;;;;;;;12.61;62.21;102001.13;10562801;27;20428;-76
2024/01/28 19:13:48;;;;;;;8.20;5.00;;;;;;;12.53;64.70;101999.13;10580389;27;20047;-77
2024/01/28 19:19:10;;;;;;;5.32;3.80;;;;;;;12.50;64.12;101994.63;10584973;27;20057;-76
2024/01/28 19:24:34;;;;;;;5.07;3.90;;;;;;;12.58;63.87;102003.69;10589159;27;20066;-77
2024/01/28 19:29:57;;;;;;;6.20;3.20;;;;;;;12.48;58.71;101987.47;10578565;27;20539;-77
2024/01/28 19:35:20;;;;;;;6.15;3.53;;;;;;;12.61;56.88;102003.75;10590303;27;20047;-79
2024/01/28 19:40:45;;;;;;;11.00;3.90;;;;;;;12.38;57.57;102032.28;10607762;27;20047;-76
2024/01/28 19:46:07;;;;;;;10.40;4.00;;;;;;;12.34;60.80;102018.88;10570164;27;20106;-77
2024/01/28 19:51:30;;;;;;;10.27;5.20;;;;;;;12.43;63.80;102031.50;10547342;28;20502;-76
2024/01/28 19:56:55;;;;;;;11.07;4.35;;;;;;;12.34;66.15;102040.06;10570877;27;20047;-80
2024/01/28 20:02:17;;;;;;;10.68;5.18;;;;;;;12.34;62.78;102029.47;10563612;27;20146;-77
2024/01/28 20:07:40;;;;;;;6.30;3.20;;;;;;;12.24;59.12;102038.00;10526488;27;20052;-79
2024/01/28 20:13:07;;;;;;;10.13;6.13;;;;;;;12.29;56.35;102041.69;10551602;27;20293;-79
2024/01/28 20:18:34;;;;;;;9.30;5.20;;;;;;;12.62;55.55;102045.28;10529458;27;20724;-78
2024/01/28 20:23:57;;;;;;;7.65;4.65;;;;;;;12.78;54.89;102039.56;10573860;27;20488;-77
2024/01/28 20:29:21;;;;;;;9.40;6.07;;;;;;;12.72;54.37;102050.00;10532471;28;20044;-77
2024/01/28 20:34:43;;;;;;;9.02;3.50;;;;;;;12.63;55.46;102065.63;10571584;27;20054;-77
2024/01/28 20:40:07;;;;;;;8.50;4.05;;;;;;;12.75;54.08;102059.78;10558301;28;20043;-77
2024/01/28 20:45:31;;;;;;;5.03;3.10;;;;;;;12.80;53.22;102057.28;10575807;27;20046;-77
2024/01/28 20:50:54;;;;;;;7.25;3.17;;;;;;;12.78;52.27;102049.28;10575139;27;20043;-77
2024/01/28 20:56:22;;;;;;;12.23;4.50;;;;;;;12.76;52.17;102053.63;10617034;27;20051;-77
2024/01/28 21:01:46;;;;;;;6.45;3.78;;;;;;;12.68;52.68;102049.88;10617022;27;20061;-77
2024/01/28 21:07:08;;;;;;;8.82;3.65;;;;;;;12.57;51.80;102044.28;10593570;27;20047;-77
2024/01/28 21:12:32;;;;;;;8.00;3.67;;;;;;;12.96;50.48;102051.50;10627533;27;20051;-77
2024/01/28 21:17:56;;;;;;;6.55;3.05;;;;;;;13.21;51.86;102046.03;10621032;27;20042;-76
2024/01/28 21:23:19;;;;;;;7.32;3.92;;;;;;;13.41;50.62;102041.22;10588057;27;20043;-77
2024/01/28 21:28:42;;;;;;;4.75;2.58;;;;;;;13.51;50.61;102046.81;10587642;27;20075;-76
2024/01/28 21:34:06;;;;;;;9.02;4.00;;;;;;;13.45;51.30;102048.41;10624166;27;20056;-77
2024/01/28 21:39:29;;;;;;;10.80;3.30;;;;;;;13.44;51.13;102025.38;10543842;28;20058;-77
2024/01/28 21:44:51;;;;;;;14.55;7.40;;;;;;;13.25;51.56;102017.84;10598586;28;20449;-78
2024/01/28 21:50:16;;;;;;;6.00;3.17;;;;;;;13.45;51.83;102025.44;10574456;28;20039;-77
2024/01/28 21:55:41;;;;;;;7.45;3.03;;;;;;;13.53;51.22;102015.88;10561593;28;20066;-78
2024/01/28 22:01:04;;;;;;;8.52;2.88;;;;;;;13.45;50.45;102019.22;10566955;27;20058;-77
2024/01/28 22:06:29;;;;;;;8.63;2.47;;;;;;;13.33;53.21;102033.06;10552524;28;20043;-77
2024/01/28 22:11:52;;;;;;;3.55;2.10;;;;;;;13.41;50.67;102020.91;10578838;27;20039;-77
2024/01/28 22:17:15;;;;;;;4.35;1.50;;;;;;;13.50;50.07;102022.88;10594306;27;20108;-76
2024/01/28 22:22:39;;;;;;;7.30;2.78;;;;;;;13.45;48.94;102033.41;10588014;27;20061;-76
2024/01/28 22:28:01;;;;;;;3.67;2.10;;;;;;;13.19;48.66;102023.91;10565330;27;20109;-77
2024/01/28 22:33:23;;;;;;;4.57;2.33;;;;;;;13.38;49.21;102034.09;10550829;28;20044;-76
2024/01/28 22:38:48;;;;;;;8.25;2.63;;;;;;;13.34;49.76;102029.56;10582654;27;20051;-76
2024/01/28 22:44:10;;;;;;;5.97;3.03;;;;;;;13.23;49.33;102008.94;10538066;27;20508;-76
2024/01/28 22:49:33;;;;;;;4.35;2.28;;;;;;;13.32;48.62;102012.72;10564823;28;20052;-76
2024/01/28 22:54:57;;;;;;;2.58;1.58;;;;;;;13.16;48.54;102002.59;10553993;28;20408;-76
2024/01/28 23:00:26;;;;;;;6.25;2.40;;;;;;;12.90;48.21;101980.69;10563872;28;20047;-77
2024/01/28 23:05:49;;;;;;;4.90;3.08;;;;;;;12.80;48.07;101977.78;10559170;28;20048;-77
2024/01/28 23:11:13;;;;;;;4.57;2.80;;;;;;;12.60;49.19;101986.06;10561453;28;20051;-76
2024/01/28 23:16:35;;;;;;;6.25;2.28;;;;;;;12.63;49.92;101995.88;10555649;28;20046;-77
2024/01/28 23:21:58;;;;;;;6.13;2.95;;;;;;;12.58;50.02;101995.75;10550394;28;20047;-77
2024/01/28 23:27:22;;;;;;;5.20;2.85;;;;;;;12.44;50.36;101998.88;10562540;28;20050;-77
2024/01/28 23:32:45;;;;;;;6.40;2.45;;;;;;;12.38;50.83;102005.78;10562940;28;20074;-76
2024/01/28 23:38:08;;;;;;;8.70;3.30;;;;;;;12.48;51.40;102003.38;10561279;28;20052;-77
2024/01/28 23:43:32;;;;;;;2.58;1.67;;;;;;;12.70;51.71;101996.06;10556986;28;20043;-76
2024/01/28 23:48:55;;;;;;;6.93;2.00;;;;;;;12.67;57.62;101993.31;10578074;27;20051;-77
2024/01/28 23:54:17;;;;;;;8.95;2.55;;;;;;;12.69;56.26;101996.91;10585130;27;20043;-76
2024/01/28 23:59:41;;;;;;;6.28;2.35;;;;;;;12.89;53.91;102018.66;10574009;27;20039;-76
